sensor_id;sensor_type;location;lat;lon;timestamp;noise_LAeq;noise_LA_min;noise_LA_max;noise_LA01;noise_LA95
63692;Laerm;49838;51.798;10.954;2022-08-20T00:01:03;32.51;28.92;48.37;;
63692;Laerm;49838;51.798;10.954;2022-08-20T00:03:32;37.65;28.14;60.44;;
63692;Laerm;49838;51.798;10.954;2022-08-20T00:06:02;31.58;28.12;43.35;;
63692;Laerm;49838;51.798;10.954;2022-08-20T00:08:30;33.67;28.50;43.25;;
63692;Laerm;49838;51.798;10.954;2022-08-20T00:10:59;34.63;29.19;45.55;;
63692;Laerm;49838;51.798;10.954;2022-08-20T00:13:31;31.92;28.63;41.89;;
63692;Laerm;49838;51.798;10.954;2022-08-20T00:15:58;33.28;28.80;47.20;;
63692;Laerm;49838;51.798;10.954;2022-08-20T00:18:26;32.28;28.39;42.64;;
63692;Laerm;49838;51.798;10.954;2022-08-20T00:20:55;30.27;27.92;40.75;;
63692;Laerm;49838;51.798;10.954;2022-08-20T00:23:23;32.97;28.43;46.21;;
63692;Laerm;49838;51.798;10.954;2022-08-20T00:25:51;31.99;28.24;46.39;;
63692;Laerm;49838;51.798;10.954;2022-08-20T00:28:18;34.28;28.21;47.80;;
63692;Laerm;49838;51.798;10.954;2022-08-20T00:30:47;30.61;28.13;37.64;;
63692;Laerm;49838;51.798;10.954;2022-08-20T00:33:17;30.49;27.66;45.20;;
63692;Laerm;49838;51.798;10.954;2022-08-20T00:35:48;32.71;28.23;51.58;;
63692;Laerm;49838;51.798;10.954;2022-08-20T00:38:17;34.38;28.77;47.96;;
63692;Laerm;49838;51.798;10.954;2022-08-20T00:40:47;35.50;29.60;44.20;;
63692;Laerm;49838;51.798;10.954;2022-08-20T00:43:31;32.16;28.04;54.02;;
63692;Laerm;49838;51.798;10.954;2022-08-20T00:46:05;30.92;28.02;37.98;;
63692;Laerm;49838;51.798;10.954;2022-08-20T00:48:35;32.45;28.22;40.06;;
63692;Laerm;49838;51.798;10.954;2022-08-20T00:51:07;32.58;28.01;49.63;;
63692;Laerm;49838;51.798;10.954;2022-08-20T00:53:36;30.51;27.26;39.99;;
63692;Laerm;49838;51.798;10.954;2022-08-20T00:56:05;30.00;27.72;37.34;;
63692;Laerm;49838;51.798;10.954;2022-08-20T00:58:33;29.94;27.45;36.76;;
63692;Laerm;49838;51.798;10.954;2022-08-20T01:01:04;30.54;28.01;45.70;;
63692;Laerm;49838;51.798;10.954;2022-08-20T01:03:33;30.52;27.60;44.06;;
63692;Laerm;49838;51.798;10.954;2022-08-20T01:06:00;31.87;28.51;40.98;;
63692;Laerm;49838;51.798;10.954;2022-08-20T01:08:27;30.65;28.27;43.40;;
63692;Laerm;49838;51.798;10.954;2022-08-20T01:10:56;30.22;27.85;36.76;;
63692;Laerm;49838;51.798;10.954;2022-08-20T01:13:36;50.17;27.54;68.65;;
63692;Laerm;49838;51.798;10.954;2022-08-20T01:16:09;30.49;28.19;40.17;;
63692;Laerm;49838;51.798;10.954;2022-08-20T01:18:39;31.82;28.73;37.31;;
63692;Laerm;49838;51.798;10.954;2022-08-20T01:21:08;30.77;28.42;36.04;;
63692;Laerm;49838;51.798;10.954;2022-08-20T01:23:41;31.00;27.99;45.52;;
63692;Laerm;49838;51.798;10.954;2022-08-20T01:26:13;31.40;27.80;42.55;;
63692;Laerm;49838;51.798;10.954;2022-08-20T01:28:44;31.43;28.73;39.57;;
63692;Laerm;49838;51.798;10.954;2022-08-20T01:31:15;31.10;28.23;37.87;;
63692;Laerm;49838;51.798;10.954;2022-08-20T01:33:43;30.69;27.97;39.86;;
63692;Laerm;49838;51.798;10.954;2022-08-20T01:36:13;31.13;28.04;42.37;;
63692;Laerm;49838;51.798;10.954;2022-08-20T01:38:41;31.32;28.71;37.85;;
63692;Laerm;49838;51.798;10.954;2022-08-20T01:41:18;32.24;27.90;44.71;;
63692;Laerm;49838;51.798;10.954;2022-08-20T01:43:50;32.04;28.77;51.70;;
63692;Laerm;49838;51.798;10.954;2022-08-20T01:46:23;34.81;28.95;45.24;;
63692;Laerm;49838;51.798;10.954;2022-08-20T01:48:52;32.01;28.24;43.36;;
63692;Laerm;49838;51.798;10.954;2022-08-20T01:51:23;34.61;28.57;49.81;;
63692;Laerm;49838;51.798;10.954;2022-08-20T01:53:53;30.91;27.83;43.41;;
63692;Laerm;49838;51.798;10.954;2022-08-20T01:56:25;30.99;27.47;41.72;;
63692;Laerm;49838;51.798;10.954;2022-08-20T01:58:55;48.97;27.83;67.22;;
63692;Laerm;49838;51.798;10.954;2022-08-20T02:01:26;30.94;28.25;39.45;;
63692;Laerm;49838;51.798;10.954;2022-08-20T02:03:55;30.77;28.09;40.60;;
63692;Laerm;49838;51.798;10.954;2022-08-20T02:06:24;31.18;28.18;37.24;;
63692;Laerm;49838;51.798;10.954;2022-08-20T02:08:53;31.77;28.35;39.62;;
63692;Laerm;49838;51.798;10.954;2022-08-20T02:11:22;30.10;28.13;36.06;;
63692;Laerm;49838;51.798;10.954;2022-08-20T02:13:50;30.22;28.05;35.45;;
63692;Laerm;49838;51.798;10.954;2022-08-20T02:16:22;29.74;27.74;34.72;;
63692;Laerm;49838;51.798;10.954;2022-08-20T02:18:52;29.73;27.52;37.28;;
63692;Laerm;49838;51.798;10.954;2022-08-20T02:21:21;30.55;27.99;54.04;;
63692;Laerm;49838;51.798;10.954;2022-08-20T02:23:49;30.53;28.12;37.40;;
63692;Laerm;49838;51.798;10.954;2022-08-20T02:26:16;30.01;27.99;38.28;;
63692;Laerm;49838;51.798;10.954;2022-08-20T02:28:46;29.90;27.65;36.90;;
63692;Laerm;49838;51.798;10.954;2022-08-20T02:31:15;31.40;27.86;43.76;;
63692;Laerm;49838;51.798;10.954;2022-08-20T02:33:42;31.08;28.28;36.44;;
63692;Laerm;49838;51.798;10.954;2022-08-20T02:36:10;31.64;28.27;41.64;;
63692;Laerm;49838;51.798;10.954;2022-08-20T02:38:39;33.73;29.14;46.99;;
63692;Laerm;49838;51.798;10.954;2022-08-20T02:41:06;35.26;28.80;61.23;;
63692;Laerm;49838;51.798;10.954;2022-08-20T02:43:34;30.52;27.99;36.72;;
63692;Laerm;49838;51.798;10.954;2022-08-20T02:46:04;30.68;28.06;39.52;;
63692;Laerm;49838;51.798;10.954;2022-08-20T02:48:32;45.65;28.63;61.96;;
63692;Laerm;49838;51.798;10.954;2022-08-20T02:51:03;30.73;28.13;40.40;;
63692;Laerm;49838;51.798;10.954;2022-08-20T02:53:34;50.40;28.45;69.47;;
63692;Laerm;49838;51.798;10.954;2022-08-20T02:56:03;32.67;28.08;47.76;;
63692;Laerm;49838;51.798;10.954;2022-08-20T02:58:31;31.71;28.57;43.16;;
63692;Laerm;49838;51.798;10.954;2022-08-20T03:01:00;37.05;28.38;53.53;;
63692;Laerm;49838;51.798;10.954;2022-08-20T03:03:30;31.80;28.97;39.05;;
63692;Laerm;49838;51.798;10.954;2022-08-20T03:05:59;32.17;28.70;39.78;;
63692;Laerm;49838;51.798;10.954;2022-08-20T03:08:27;30.86;28.33;47.43;;
63692;Laerm;49838;51.798;10.954;2022-08-20T03:10:55;45.63;28.33;63.75;;
63692;Laerm;49838;51.798;10.954;2022-08-20T03:13:23;31.76;28.49;41.33;;
63692;Laerm;49838;51.798;10.954;2022-08-20T03:15:53;34.58;29.67;44.52;;
63692;Laerm;49838;51.798;10.954;2022-08-20T03:18:22;33.46;28.90;44.81;;
63692;Laerm;49838;51.798;10.954;2022-08-20T03:20:51;33.22;29.45;39.14;;
63692;Laerm;49838;51.798;10.954;2022-08-20T03:23:20;35.36;30.23;49.66;;
63692;Laerm;49838;51.798;10.954;2022-08-20T03:25:48;34.82;30.94;43.78;;
63692;Laerm;49838;51.798;10.954;2022-08-20T03:28:16;35.51;31.11;46.44;;
63692;Laerm;49838;51.798;10.954;2022-08-20T03:30:44;56.21;30.62;75.87;;
63692;Laerm;49838;51.798;10.954;2022-08-20T03:33:11;55.36;30.72;71.34;;
63692;Laerm;49838;51.798;10.954;2022-08-20T03:35:39;34.88;30.06;48.53;;
63692;Laerm;49838;51.798;10.954;2022-08-20T03:38:09;33.56;29.56;45.53;;
63692;Laerm;49838;51.798;10.954;2022-08-20T03:40:37;34.71;30.38;45.27;;
63692;Laerm;49838;51.798;10.954;2022-08-20T03:43:06;52.48;28.84;71.77;;
63692;Laerm;49838;51.798;10.954;2022-08-20T03:45:34;39.45;28.72;66.47;;
63692;Laerm;49838;51.798;10.954;2022-08-20T03:48:03;35.96;31.04;57.86;;
63692;Laerm;49838;51.798;10.954;2022-08-20T03:50:33;33.78;29.67;46.12;;
63692;Laerm;49838;51.798;10.954;2022-08-20T03:53:01;34.36;30.28;48.93;;
63692;Laerm;49838;51.798;10.954;2022-08-20T03:55:31;51.04;29.79;69.94;;
63692;Laerm;49838;51.798;10.954;2022-08-20T03:58:00;35.03;30.58;49.38;;
63692;Laerm;49838;51.798;10.954;2022-08-20T04:00:30;55.34;31.09;76.01;;
63692;Laerm;49838;51.798;10.954;2022-08-20T04:02:58;54.41;30.16;72.42;;
63692;Laerm;49838;51.798;10.954;2022-08-20T04:05:27;36.15;30.81;49.43;;
63692;Laerm;49838;51.798;10.954;2022-08-20T04:07:55;34.22;29.24;43.28;;
63692;Laerm;49838;51.798;10.954;2022-08-20T04:10:24;40.56;29.54;58.57;;
63692;Laerm;49838;51.798;10.954;2022-08-20T04:12:53;41.22;32.66;60.01;;
63692;Laerm;49838;51.798;10.954;2022-08-20T04:15:20;49.60;32.75;65.64;;
63692;Laerm;49838;51.798;10.954;2022-08-20T04:17:49;37.54;31.93;49.39;;
63692;Laerm;49838;51.798;10.954;2022-08-20T04:20:19;52.85;31.03;69.16;;
63692;Laerm;49838;51.798;10.954;2022-08-20T04:22:48;42.71;34.53;54.91;;
63692;Laerm;49838;51.798;10.954;2022-08-20T04:25:15;52.48;31.70;70.37;;
63692;Laerm;49838;51.798;10.954;2022-08-20T04:27:43;40.23;33.02;54.24;;
63692;Laerm;49838;51.798;10.954;2022-08-20T04:30:12;54.01;32.43;68.81;;
63692;Laerm;49838;51.798;10.954;2022-08-20T04:32:40;42.35;32.17;63.84;;
63692;Laerm;49838;51.798;10.954;2022-08-20T04:35:09;49.77;31.27;65.87;;
63692;Laerm;49838;51.798;10.954;2022-08-20T04:37:38;52.81;33.36;72.22;;
63692;Laerm;49838;51.798;10.954;2022-08-20T04:40:07;50.39;31.90;68.20;;
63692;Laerm;49838;51.798;10.954;2022-08-20T04:42:53;45.53;36.88;54.38;;
63692;Laerm;49838;51.798;10.954;2022-08-20T04:45:22;58.46;36.96;79.49;;
63692;Laerm;49838;51.798;10.954;2022-08-20T04:47:50;40.67;34.52;55.42;;
63692;Laerm;49838;51.798;10.954;2022-08-20T04:50:18;53.30;34.21;70.24;;
63692;Laerm;49838;51.798;10.954;2022-08-20T04:52:46;55.19;34.38;71.93;;
63692;Laerm;49838;51.798;10.954;2022-08-20T04:55:15;38.06;32.99;47.00;;
63692;Laerm;49838;51.798;10.954;2022-08-20T04:57:43;41.69;34.11;55.07;;
63692;Laerm;49838;51.798;10.954;2022-08-20T05:00:15;49.70;32.87;64.78;;
63692;Laerm;49838;51.798;10.954;2022-08-20T05:02:44;45.33;32.90;62.08;;
63692;Laerm;49838;51.798;10.954;2022-08-20T05:05:12;36.18;32.08;45.63;;
63692;Laerm;49838;51.798;10.954;2022-08-20T05:07:40;53.99;31.96;71.43;;
63692;Laerm;49838;51.798;10.954;2022-08-20T05:10:10;40.84;36.31;51.74;;
63692;Laerm;49838;51.798;10.954;2022-08-20T05:12:39;41.97;35.61;49.00;;
63692;Laerm;49838;51.798;10.954;2022-08-20T05:15:07;39.39;32.61;47.13;;
63692;Laerm;49838;51.798;10.954;2022-08-20T05:17:36;43.42;37.70;55.54;;
63692;Laerm;49838;51.798;10.954;2022-08-20T05:20:06;52.29;35.52;69.39;;
63692;Laerm;49838;51.798;10.954;2022-08-20T05:22:34;50.18;32.72;66.90;;
63692;Laerm;49838;51.798;10.954;2022-08-20T05:25:03;54.22;34.19;70.16;;
63692;Laerm;49838;51.798;10.954;2022-08-20T05:27:30;41.01;33.26;56.82;;
63692;Laerm;49838;51.798;10.954;2022-08-20T05:29:59;51.51;31.77;69.94;;
63692;Laerm;49838;51.798;10.954;2022-08-20T05:32:27;52.87;31.35;71.59;;
63692;Laerm;49838;51.798;10.954;2022-08-20T05:34:55;41.74;31.20;60.56;;
63692;Laerm;49838;51.798;10.954;2022-08-20T05:37:24;56.46;33.50;71.16;;
63692;Laerm;49838;51.798;10.954;2022-08-20T05:39:51;48.68;31.87;67.05;;
63692;Laerm;49838;51.798;10.954;2022-08-20T05:42:18;47.53;31.27;64.78;;
63692;Laerm;49838;51.798;10.954;2022-08-20T05:44:45;54.53;30.97;72.40;;
63692;Laerm;49838;51.798;10.954;2022-08-20T05:47:13;51.68;31.26;69.94;;
63692;Laerm;49838;51.798;10.954;2022-08-20T05:49:40;50.58;30.69;68.14;;
63692;Laerm;49838;51.798;10.954;2022-08-20T05:52:07;53.19;33.26;68.44;;
63692;Laerm;49838;51.798;10.954;2022-08-20T05:54:36;51.30;31.94;70.93;;
63692;Laerm;49838;51.798;10.954;2022-08-20T05:57:04;54.46;30.47;71.76;;
63692;Laerm;49838;51.798;10.954;2022-08-20T05:59:31;37.60;30.58;55.24;;
63692;Laerm;49838;51.798;10.954;2022-08-20T06:02:02;55.15;31.13;70.75;;
63692;Laerm;49838;51.798;10.954;2022-08-20T06:04:49;59.07;31.94;76.08;;
63692;Laerm;49838;51.798;10.954;2022-08-20T06:07:15;54.10;30.44;70.64;;
63692;Laerm;49838;51.798;10.954;2022-08-20T06:09:44;54.47;30.07;75.08;;
63692;Laerm;49838;51.798;10.954;2022-08-20T06:12:11;51.12;30.94;67.14;;
63692;Laerm;49838;51.798;10.954;2022-08-20T06:14:39;48.10;31.45;65.05;;
63692;Laerm;49838;51.798;10.954;2022-08-20T06:17:08;48.14;30.92;65.02;;
63692;Laerm;49838;51.798;10.954;2022-08-20T06:19:36;56.43;31.36;69.69;;
63692;Laerm;49838;51.798;10.954;2022-08-20T06:22:05;62.33;31.82;80.14;;
63692;Laerm;49838;51.798;10.954;2022-08-20T06:24:32;56.20;30.96;74.28;;
63692;Laerm;49838;51.798;10.954;2022-08-20T06:27:02;52.98;31.91;70.77;;
63692;Laerm;49838;51.798;10.954;2022-08-20T06:29:31;51.80;32.01;69.32;;
63692;Laerm;49838;51.798;10.954;2022-08-20T06:31:59;57.72;31.57;74.68;;
63692;Laerm;49838;51.798;10.954;2022-08-20T06:34:27;55.56;32.00;68.59;;
63692;Laerm;49838;51.798;10.954;2022-08-20T06:36:55;52.10;31.65;67.17;;
63692;Laerm;49838;51.798;10.954;2022-08-20T06:39:24;51.93;31.50;71.09;;
63692;Laerm;49838;51.798;10.954;2022-08-20T06:41:53;56.75;33.41;72.01;;
63692;Laerm;49838;51.798;10.954;2022-08-20T06:44:24;51.86;32.64;69.14;;
63692;Laerm;49838;51.798;10.954;2022-08-20T06:46:53;51.50;33.63;66.94;;
63692;Laerm;49838;51.798;10.954;2022-08-20T06:49:21;53.74;32.38;69.64;;
63692;Laerm;49838;51.798;10.954;2022-08-20T06:51:48;51.33;33.13;69.82;;
63692;Laerm;49838;51.798;10.954;2022-08-20T06:54:15;42.10;31.20;59.47;;
63692;Laerm;49838;51.798;10.954;2022-08-20T06:56:42;52.79;32.82;68.07;;
63692;Laerm;49838;51.798;10.954;2022-08-20T06:59:10;56.06;32.10;70.25;;
63692;Laerm;49838;51.798;10.954;2022-08-20T07:01:38;53.29;32.81;71.62;;
63692;Laerm;49838;51.798;10.954;2022-08-20T07:04:05;56.76;33.98;78.62;;
63692;Laerm;49838;51.798;10.954;2022-08-20T07:06:33;55.38;35.41;69.94;;
63692;Laerm;49838;51.798;10.954;2022-08-20T07:09:00;51.29;33.54;66.71;;
63692;Laerm;49838;51.798;10.954;2022-08-20T07:11:27;59.83;34.33;76.59;;
63692;Laerm;49838;51.798;10.954;2022-08-20T07:13:55;57.61;33.42;71.80;;
63692;Laerm;49838;51.798;10.954;2022-08-20T07:16:23;56.28;36.05;70.33;;
63692;Laerm;49838;51.798;10.954;2022-08-20T07:18:52;38.24;33.93;45.36;;
63692;Laerm;49838;51.798;10.954;2022-08-20T07:21:19;39.32;33.87;46.10;;
63692;Laerm;49838;51.798;10.954;2022-08-20T07:23:46;53.78;34.52;70.28;;
63692;Laerm;49838;51.798;10.954;2022-08-20T07:26:14;54.37;35.35;67.84;;
63692;Laerm;49838;51.798;10.954;2022-08-20T07:28:42;55.17;35.54;68.81;;
63692;Laerm;49838;51.798;10.954;2022-08-20T07:31:09;61.17;35.07;79.82;;
63692;Laerm;49838;51.798;10.954;2022-08-20T07:33:55;48.66;34.80;66.96;;
63692;Laerm;49838;51.798;10.954;2022-08-20T07:36:22;57.60;35.69;74.52;;
63692;Laerm;49838;51.798;10.954;2022-08-20T07:38:50;61.88;36.81;75.17;;
63692;Laerm;49838;51.798;10.954;2022-08-20T07:41:18;58.78;35.42;73.00;;
63692;Laerm;49838;51.798;10.954;2022-08-20T07:43:46;54.36;35.90;69.72;;
63692;Laerm;49838;51.798;10.954;2022-08-20T07:46:17;57.38;39.58;71.21;;
63692;Laerm;49838;51.798;10.954;2022-08-20T07:48:45;57.61;35.16;72.31;;
63692;Laerm;49838;51.798;10.954;2022-08-20T07:51:18;62.45;35.19;84.71;;
63692;Laerm;49838;51.798;10.954;2022-08-20T07:53:48;58.06;36.40;75.22;;
63692;Laerm;49838;51.798;10.954;2022-08-20T07:56:17;50.24;36.08;65.89;;
63692;Laerm;49838;51.798;10.954;2022-08-20T07:58:48;55.63;37.20;70.88;;
63692;Laerm;49838;51.798;10.954;2022-08-20T08:01:16;59.00;36.83;73.10;;
63692;Laerm;49838;51.798;10.954;2022-08-20T08:03:43;56.91;36.47;74.25;;
63692;Laerm;49838;51.798;10.954;2022-08-20T08:06:11;43.89;34.90;67.46;;
63692;Laerm;49838;51.798;10.954;2022-08-20T08:08:40;56.64;35.63;70.33;;
63692;Laerm;49838;51.798;10.954;2022-08-20T08:11:08;57.51;36.65;71.26;;
63692;Laerm;49838;51.798;10.954;2022-08-20T08:13:38;56.81;36.72;70.91;;
63692;Laerm;49838;51.798;10.954;2022-08-20T08:16:07;55.25;35.99;69.24;;
63692;Laerm;49838;51.798;10.954;2022-08-20T08:18:38;54.38;36.40;68.20;;
63692;Laerm;49838;51.798;10.954;2022-08-20T08:21:08;56.52;37.96;70.26;;
63692;Laerm;49838;51.798;10.954;2022-08-20T08:23:38;57.24;34.81;73.17;;
63692;Laerm;49838;51.798;10.954;2022-08-20T08:26:12;55.71;35.80;69.68;;
63692;Laerm;49838;51.798;10.954;2022-08-20T08:28:40;54.23;35.74;71.31;;
63692;Laerm;49838;51.798;10.954;2022-08-20T08:31:09;62.23;39.52;80.48;;
63692;Laerm;49838;51.798;10.954;2022-08-20T08:33:36;54.84;37.34;67.37;;
63692;Laerm;49838;51.798;10.954;2022-08-20T08:36:08;63.85;36.21;80.73;;
63692;Laerm;49838;51.798;10.954;2022-08-20T08:38:38;55.51;34.17;69.03;;
63692;Laerm;49838;51.798;10.954;2022-08-20T08:41:13;54.96;32.96;67.38;;
63692;Laerm;49838;51.798;10.954;2022-08-20T08:43:43;53.16;35.86;69.53;;
63692;Laerm;49838;51.798;10.954;2022-08-20T08:46:16;45.75;36.21;67.00;;
63692;Laerm;49838;51.798;10.954;2022-08-20T08:48:45;55.37;35.71;69.64;;
63692;Laerm;49838;51.798;10.954;2022-08-20T08:51:25;57.41;35.90;68.64;;
63692;Laerm;49838;51.798;10.954;2022-08-20T08:53:54;56.91;38.36;70.55;;
63692;Laerm;49838;51.798;10.954;2022-08-20T08:56:28;61.01;34.46;76.26;;
63692;Laerm;49838;51.798;10.954;2022-08-20T08:58:58;56.22;34.31;71.79;;
63692;Laerm;49838;51.798;10.954;2022-08-20T09:01:27;60.93;36.61;75.62;;
63692;Laerm;49838;51.798;10.954;2022-08-20T09:03:55;53.98;34.93;70.05;;
63692;Laerm;49838;51.798;10.954;2022-08-20T09:06:24;51.83;37.12;73.60;;
63692;Laerm;49838;51.798;10.954;2022-08-20T09:08:55;58.99;36.47;76.81;;
63692;Laerm;49838;51.798;10.954;2022-08-20T09:11:26;55.52;33.70;69.15;;
63692;Laerm;49838;51.798;10.954;2022-08-20T09:13:54;49.28;36.37;68.46;;
63692;Laerm;49838;51.798;10.954;2022-08-20T09:16:23;59.36;37.11;71.46;;
63692;Laerm;49838;51.798;10.954;2022-08-20T09:18:52;61.07;36.55;78.84;;
63692;Laerm;49838;51.798;10.954;2022-08-20T09:21:19;56.54;36.55;73.19;;
63692;Laerm;49838;51.798;10.954;2022-08-20T09:23:46;58.76;38.62;71.49;;
63692;Laerm;49838;51.798;10.954;2022-08-20T09:26:13;57.58;37.68;70.85;;
63692;Laerm;49838;51.798;10.954;2022-08-20T09:28:42;57.98;34.46;73.16;;
63692;Laerm;49838;51.798;10.954;2022-08-20T09:31:09;57.12;36.13;74.07;;
63692;Laerm;49838;51.798;10.954;2022-08-20T09:33:36;56.96;35.41;73.65;;
63692;Laerm;49838;51.798;10.954;2022-08-20T09:36:04;56.67;35.81;73.23;;
63692;Laerm;49838;51.798;10.954;2022-08-20T09:38:31;55.38;36.40;72.74;;
63692;Laerm;49838;51.798;10.954;2022-08-20T09:40:58;55.41;35.19;71.41;;
63692;Laerm;49838;51.798;10.954;2022-08-20T09:43:26;56.83;34.12;72.16;;
63692;Laerm;49838;51.798;10.954;2022-08-20T09:45:54;52.74;35.51;70.51;;
63692;Laerm;49838;51.798;10.954;2022-08-20T09:48:22;58.27;36.78;75.28;;
63692;Laerm;49838;51.798;10.954;2022-08-20T09:50:49;56.45;36.49;71.92;;
63692;Laerm;49838;51.798;10.954;2022-08-20T09:53:18;51.75;35.53;79.34;;
63692;Laerm;49838;51.798;10.954;2022-08-20T09:55:49;56.25;36.61;71.17;;
63692;Laerm;49838;51.798;10.954;2022-08-20T09:58:21;47.29;35.06;62.91;;
63692;Laerm;49838;51.798;10.954;2022-08-20T10:00:50;56.10;36.11;72.14;;
63692;Laerm;49838;51.798;10.954;2022-08-20T10:03:19;46.42;34.99;67.87;;
63692;Laerm;49838;51.798;10.954;2022-08-20T10:05:47;53.20;34.69;68.70;;
63692;Laerm;49838;51.798;10.954;2022-08-20T10:08:14;58.61;37.94;72.74;;
63692;Laerm;49838;51.798;10.954;2022-08-20T10:10:41;58.23;35.75;72.15;;
63692;Laerm;49838;51.798;10.954;2022-08-20T10:13:08;55.65;34.11;70.12;;
63692;Laerm;49838;51.798;10.954;2022-08-20T10:15:36;56.28;33.88;72.67;;
63692;Laerm;49838;51.798;10.954;2022-08-20T10:18:04;59.47;35.86;75.05;;
63692;Laerm;49838;51.798;10.954;2022-08-20T10:20:34;49.98;36.18;68.03;;
63692;Laerm;49838;51.798;10.954;2022-08-20T10:23:02;48.93;34.20;67.26;;
63692;Laerm;49838;51.798;10.954;2022-08-20T10:25:30;56.26;37.17;69.25;;
63692;Laerm;49838;51.798;10.954;2022-08-20T10:27:57;56.81;36.00;72.62;;
63692;Laerm;49838;51.798;10.954;2022-08-20T10:30:25;59.44;35.71;77.02;;
63692;Laerm;49838;51.798;10.954;2022-08-20T10:32:52;54.03;36.18;71.98;;
63692;Laerm;49838;51.798;10.954;2022-08-20T10:35:20;52.47;35.72;68.25;;
63692;Laerm;49838;51.798;10.954;2022-08-20T10:37:48;58.00;36.05;70.84;;
63692;Laerm;49838;51.798;10.954;2022-08-20T10:40:16;59.13;35.53;73.94;;
63692;Laerm;49838;51.798;10.954;2022-08-20T10:42:44;56.92;35.60;73.03;;
63692;Laerm;49838;51.798;10.954;2022-08-20T10:45:12;58.63;37.86;72.96;;
63692;Laerm;49838;51.798;10.954;2022-08-20T10:47:41;54.77;36.09;72.47;;
63692;Laerm;49838;51.798;10.954;2022-08-20T10:50:12;56.81;36.62;71.85;;
63692;Laerm;49838;51.798;10.954;2022-08-20T10:52:40;55.17;37.27;75.20;;
63692;Laerm;49838;51.798;10.954;2022-08-20T10:55:09;57.31;37.19;79.69;;
63692;Laerm;49838;51.798;10.954;2022-08-20T10:57:38;55.15;36.19;77.28;;
63692;Laerm;49838;51.798;10.954;2022-08-20T11:00:07;57.12;37.35;73.02;;
63692;Laerm;49838;51.798;10.954;2022-08-20T11:02:35;56.95;34.41;73.63;;
63692;Laerm;49838;51.798;10.954;2022-08-20T11:05:03;54.39;35.84;70.01;;
63692;Laerm;49838;51.798;10.954;2022-08-20T11:07:32;55.67;33.98;69.26;;
63692;Laerm;49838;51.798;10.954;2022-08-20T11:10:00;51.25;34.47;67.94;;
63692;Laerm;49838;51.798;10.954;2022-08-20T11:12:28;53.35;35.54;66.20;;
63692;Laerm;49838;51.798;10.954;2022-08-20T11:14:56;51.65;34.28;71.53;;
63692;Laerm;49838;51.798;10.954;2022-08-20T11:17:26;57.38;34.46;71.63;;
63692;Laerm;49838;51.798;10.954;2022-08-20T11:19:55;53.61;32.53;70.30;;
63692;Laerm;49838;51.798;10.954;2022-08-20T11:22:23;56.05;33.64;70.74;;
63692;Laerm;49838;51.798;10.954;2022-08-20T11:24:51;52.90;35.02;70.43;;
63692;Laerm;49838;51.798;10.954;2022-08-20T11:27:22;51.06;33.79;67.26;;
63692;Laerm;49838;51.798;10.954;2022-08-20T11:29:52;52.57;37.19;68.54;;
63692;Laerm;49838;51.798;10.954;2022-08-20T11:32:19;57.33;34.01;72.68;;
63692;Laerm;49838;51.798;10.954;2022-08-20T11:34:47;60.85;33.72;76.88;;
63692;Laerm;49838;51.798;10.954;2022-08-20T11:37:16;54.17;35.81;69.51;;
63692;Laerm;49838;51.798;10.954;2022-08-20T11:39:44;59.85;36.61;76.93;;
63692;Laerm;49838;51.798;10.954;2022-08-20T11:42:11;52.54;33.54;73.84;;
63692;Laerm;49838;51.798;10.954;2022-08-20T11:44:38;48.26;32.39;66.37;;
63692;Laerm;49838;51.798;10.954;2022-08-20T11:47:09;54.51;32.10;70.48;;
63692;Laerm;49838;51.798;10.954;2022-08-20T11:49:45;54.91;33.04;72.20;;
63692;Laerm;49838;51.798;10.954;2022-08-20T11:52:12;50.46;32.56;67.80;;
63692;Laerm;49838;51.798;10.954;2022-08-20T11:54:39;57.34;33.17;74.22;;
63692;Laerm;49838;51.798;10.954;2022-08-20T11:57:09;56.41;32.28;71.14;;
63692;Laerm;49838;51.798;10.954;2022-08-20T11:59:36;54.18;32.59;70.40;;
63692;Laerm;49838;51.798;10.954;2022-08-20T12:02:03;57.48;32.32;74.51;;
63692;Laerm;49838;51.798;10.954;2022-08-20T12:04:32;54.79;33.21;70.87;;
63692;Laerm;49838;51.798;10.954;2022-08-20T12:07:07;54.13;33.37;77.24;;
63692;Laerm;49838;51.798;10.954;2022-08-20T12:09:34;57.23;33.11;75.33;;
63692;Laerm;49838;51.798;10.954;2022-08-20T12:12:01;54.95;34.04;70.88;;
63692;Laerm;49838;51.798;10.954;2022-08-20T12:14:29;57.38;35.57;70.67;;
63692;Laerm;49838;51.798;10.954;2022-08-20T12:16:56;57.95;34.53;77.23;;
63692;Laerm;49838;51.798;10.954;2022-08-20T12:19:23;54.23;32.68;73.18;;
63692;Laerm;49838;51.798;10.954;2022-08-20T12:21:53;60.33;33.37;74.04;;
63692;Laerm;49838;51.798;10.954;2022-08-20T12:24:20;51.50;32.06;65.42;;
63692;Laerm;49838;51.798;10.954;2022-08-20T12:26:47;56.87;32.84;71.55;;
63692;Laerm;49838;51.798;10.954;2022-08-20T12:29:14;41.56;33.16;60.09;;
63692;Laerm;49838;51.798;10.954;2022-08-20T12:31:42;62.06;34.50;81.53;;
63692;Laerm;49838;51.798;10.954;2022-08-20T12:34:09;56.63;35.22;72.81;;
63692;Laerm;49838;51.798;10.954;2022-08-20T12:36:36;50.63;33.98;67.43;;
63692;Laerm;49838;51.798;10.954;2022-08-20T12:39:05;56.17;34.59;75.09;;
63692;Laerm;49838;51.798;10.954;2022-08-20T12:41:32;57.98;37.83;73.75;;
63692;Laerm;49838;51.798;10.954;2022-08-20T12:43:59;56.97;37.23;76.52;;
63692;Laerm;49838;51.798;10.954;2022-08-20T12:46:31;56.15;38.95;71.18;;
63692;Laerm;49838;51.798;10.954;2022-08-20T12:48:59;55.13;34.51;70.94;;
63692;Laerm;49838;51.798;10.954;2022-08-20T12:51:26;53.35;35.02;66.99;;
63692;Laerm;49838;51.798;10.954;2022-08-20T12:53:53;56.27;36.41;70.75;;
63692;Laerm;49838;51.798;10.954;2022-08-20T12:56:22;50.06;34.09;68.19;;
63692;Laerm;49838;51.798;10.954;2022-08-20T12:58:49;58.12;34.57;73.50;;
63692;Laerm;49838;51.798;10.954;2022-08-20T13:01:16;50.43;34.05;65.58;;
63692;Laerm;49838;51.798;10.954;2022-08-20T13:03:43;52.06;34.97;70.43;;
63692;Laerm;49838;51.798;10.954;2022-08-20T13:06:10;51.91;35.66;66.50;;
63692;Laerm;49838;51.798;10.954;2022-08-20T13:08:38;55.11;36.07;72.43;;
63692;Laerm;49838;51.798;10.954;2022-08-20T13:11:05;57.57;36.09;82.14;;
63692;Laerm;49838;51.798;10.954;2022-08-20T13:13:33;52.06;33.09;75.72;;
63692;Laerm;49838;51.798;10.954;2022-08-20T13:16:02;60.38;36.34;80.77;;
63692;Laerm;49838;51.798;10.954;2022-08-20T13:18:29;62.98;37.85;82.40;;
63692;Laerm;49838;51.798;10.954;2022-08-20T13:20:56;56.64;35.38;80.15;;
63692;Laerm;49838;51.798;10.954;2022-08-20T13:23:23;57.33;35.61;76.40;;
63692;Laerm;49838;51.798;10.954;2022-08-20T13:25:51;55.64;35.42;69.28;;
63692;Laerm;49838;51.798;10.954;2022-08-20T13:28:18;48.94;34.73;61.53;;
63692;Laerm;49838;51.798;10.954;2022-08-20T13:30:46;52.31;34.80;66.73;;
63692;Laerm;49838;51.798;10.954;2022-08-20T13:33:14;53.19;33.84;68.79;;
63692;Laerm;49838;51.798;10.954;2022-08-20T13:35:41;59.81;34.92;74.13;;
63692;Laerm;49838;51.798;10.954;2022-08-20T13:38:09;47.63;34.06;66.20;;
63692;Laerm;49838;51.798;10.954;2022-08-20T13:40:36;65.35;33.84;83.02;;